sensor_id;sensor_type;location;lat;lon;timestamp;P1;durP1;ratioP1;P2;durP2;ratioP2
26742;SDS011;14341;51.256;22.478;2022-09-09T00:02:54;21.65;;;15.10;;
26742;SDS011;14341;51.256;22.478;2022-09-09T00:06:06;21.90;;;15.70;;
26742;SDS011;14341;51.256;22.478;2022-09-09T00:09:15;20.33;;;14.43;;
26742;SDS011;14341;51.256;22.478;2022-09-09T00:12:22;25.75;;;14.10;;
26742;SDS011;14341;51.256;22.478;2022-09-09T00:15:32;22.73;;;14.65;;
26742;SDS011;14341;51.256;22.478;2022-09-09T00:18:46;24.73;;;14.33;;
26742;SDS011;14341;51.256;22.478;2022-09-09T00:21:58;22.45;;;14.10;;
26742;SDS011;14341;51.256;22.478;2022-09-09T00:25:10;20.08;;;13.68;;
26742;SDS011;14341;51.256;22.478;2022-09-09T00:28:20;22.40;;;14.15;;
26742;SDS011;14341;51.256;22.478;2022-09-09T00:31:26;19.90;;;13.15;;
26742;SDS011;14341;51.256;22.478;2022-09-09T00:34:32;19.38;;;13.98;;
26742;SDS011;14341;51.256;22.478;2022-09-09T00:37:36;20.25;;;13.63;;
26742;SDS011;14341;51.256;22.478;2022-09-09T00:40:45;21.45;;;13.55;;
26742;SDS011;14341;51.256;22.478;2022-09-09T00:43:57;18.13;;;13.05;;
26742;SDS011;14341;51.256;22.478;2022-09-09T00:47:18;19.98;;;13.18;;
26742;SDS011;14341;51.256;22.478;2022-09-09T00:50:45;20.38;;;12.50;;
26742;SDS011;14341;51.256;22.478;2022-09-09T00:54:15;22.20;;;13.55;;
26742;SDS011;14341;51.256;22.478;2022-09-09T00:57:30;20.88;;;13.93;;
26742;SDS011;14341;51.256;22.478;2022-09-09T01:03:56;21.75;;;14.70;;
26742;SDS011;14341;51.256;22.478;2022-09-09T01:07:02;23.92;;;14.25;;
26742;SDS011;14341;51.256;22.478;2022-09-09T01:10:11;22.33;;;14.43;;
26742;SDS011;14341;51.256;22.478;2022-09-09T01:13:28;21.73;;;14.50;;
26742;SDS011;14341;51.256;22.478;2022-09-09T01:16:35;23.23;;;15.35;;
26742;SDS011;14341;51.256;22.478;2022-09-09T01:19:45;23.67;;;15.65;;
26742;SDS011;14341;51.256;22.478;2022-09-09T01:23:13;25.15;;;14.35;;
26742;SDS011;14341;51.256;22.478;2022-09-09T01:26:49;22.73;;;14.43;;
26742;SDS011;14341;51.256;22.478;2022-09-09T01:29:59;24.27;;;15.57;;
26742;SDS011;14341;51.256;22.478;2022-09-09T01:33:03;22.77;;;14.95;;
26742;SDS011;14341;51.256;22.478;2022-09-09T01:36:08;22.30;;;15.23;;
26742;SDS011;14341;51.256;22.478;2022-09-09T01:39:24;22.10;;;15.13;;
26742;SDS011;14341;51.256;22.478;2022-09-09T01:42:35;23.10;;;15.57;;
26742;SDS011;14341;51.256;22.478;2022-09-09T01:45:39;22.70;;;16.02;;
26742;SDS011;14341;51.256;22.478;2022-09-09T01:48:44;22.52;;;15.10;;
26742;SDS011;14341;51.256;22.478;2022-09-09T01:51:50;22.02;;;15.80;;
26742;SDS011;14341;51.256;22.478;2022-09-09T01:55:04;24.45;;;15.90;;
26742;SDS011;14341;51.256;22.478;2022-09-09T01:58:18;24.48;;;16.25;;
26742;SDS011;14341;51.256;22.478;2022-09-09T02:01:35;25.23;;;14.52;;
26742;SDS011;14341;51.256;22.478;2022-09-09T02:04:52;25.73;;;16.35;;
26742;SDS011;14341;51.256;22.478;2022-09-09T02:08:00;26.35;;;15.65;;
26742;SDS011;14341;51.256;22.478;2022-09-09T02:11:20;24.05;;;15.63;;
26742;SDS011;14341;51.256;22.478;2022-09-09T02:14:37;23.38;;;15.18;;
26742;SDS011;14341;51.256;22.478;2022-09-09T02:17:44;20.70;;;14.75;;
26742;SDS011;14341;51.256;22.478;2022-09-09T02:20:51;25.25;;;15.63;;
26742;SDS011;14341;51.256;22.478;2022-09-09T02:23:56;25.48;;;16.48;;
26742;SDS011;14341;51.256;22.478;2022-09-09T02:27:09;26.00;;;15.95;;
26742;SDS011;14341;51.256;22.478;2022-09-09T02:30:17;23.35;;;15.73;;
26742;SDS011;14341;51.256;22.478;2022-09-09T02:33:30;25.23;;;15.00;;
26742;SDS011;14341;51.256;22.478;2022-09-09T02:36:36;19.25;;;15.20;;
26742;SDS011;14341;51.256;22.478;2022-09-09T02:39:42;23.13;;;15.50;;
26742;SDS011;14341;51.256;22.478;2022-09-09T02:42:49;23.95;;;16.52;;
26742;SDS011;14341;51.256;22.478;2022-09-09T02:45:57;21.25;;;14.93;;
26742;SDS011;14341;51.256;22.478;2022-09-09T02:49:10;23.17;;;15.40;;
26742;SDS011;14341;51.256;22.478;2022-09-09T02:52:21;24.02;;;15.32;;
26742;SDS011;14341;51.256;22.478;2022-09-09T02:55:37;24.88;;;15.65;;
26742;SDS011;14341;51.256;22.478;2022-09-09T02:58:45;20.75;;;14.40;;
26742;SDS011;14341;51.256;22.478;2022-09-09T03:01:50;22.90;;;15.40;;
26742;SDS011;14341;51.256;22.478;2022-09-09T03:04:54;21.77;;;15.60;;
26742;SDS011;14341;51.256;22.478;2022-09-09T03:07:58;25.95;;;15.45;;
26742;SDS011;14341;51.256;22.478;2022-09-09T03:11:01;25.05;;;15.13;;
26742;SDS011;14341;51.256;22.478;2022-09-09T03:14:08;25.60;;;15.40;;
26742;SDS011;14341;51.256;22.478;2022-09-09T03:17:15;22.02;;;15.13;;
26742;SDS011;14341;51.256;22.478;2022-09-09T03:20:25;24.10;;;15.68;;
26742;SDS011;14341;51.256;22.478;2022-09-09T03:23:30;23.10;;;15.50;;
26742;SDS011;14341;51.256;22.478;2022-09-09T03:26:36;21.70;;;15.63;;
26742;SDS011;14341;51.256;22.478;2022-09-09T03:29:42;20.88;;;15.18;;
26742;SDS011;14341;51.256;22.478;2022-09-09T03:32:51;23.15;;;15.13;;
26742;SDS011;14341;51.256;22.478;2022-09-09T03:35:55;24.58;;;15.63;;
26742;SDS011;14341;51.256;22.478;2022-09-09T03:38:59;25.25;;;15.48;;
26742;SDS011;14341;51.256;22.478;2022-09-09T03:42:05;25.83;;;15.27;;
26742;SDS011;14341;51.256;22.478;2022-09-09T03:45:09;22.35;;;16.15;;
26742;SDS011;14341;51.256;22.478;2022-09-09T03:48:17;23.95;;;15.70;;
26742;SDS011;14341;51.256;22.478;2022-09-09T03:51:21;23.60;;;16.00;;
26742;SDS011;14341;51.256;22.478;2022-09-09T03:54:24;22.73;;;16.80;;
26742;SDS011;14341;51.256;22.478;2022-09-09T03:57:30;22.58;;;16.23;;
26742;SDS011;14341;51.256;22.478;2022-09-09T04:00:37;22.58;;;15.93;;
26742;SDS011;14341;51.256;22.478;2022-09-09T04:03:45;26.70;;;16.80;;
26742;SDS011;14341;51.256;22.478;2022-09-09T04:06:48;25.58;;;15.48;;
26742;SDS011;14341;51.256;22.478;2022-09-09T04:09:52;22.58;;;16.05;;
26742;SDS011;14341;51.256;22.478;2022-09-09T04:12:56;22.40;;;15.75;;
26742;SDS011;14341;51.256;22.478;2022-09-09T04:15:59;21.45;;;15.90;;
26742;SDS011;14341;51.256;22.478;2022-09-09T04:19:07;22.60;;;16.27;;
26742;SDS011;14341;51.256;22.478;2022-09-09T04:22:10;26.75;;;16.38;;
26742;SDS011;14341;51.256;22.478;2022-09-09T04:25:13;21.30;;;16.00;;
26742;SDS011;14341;51.256;22.478;2022-09-09T04:28:17;27.20;;;16.52;;
26742;SDS011;14341;51.256;22.478;2022-09-09T04:31:22;25.40;;;16.98;;
26742;SDS011;14341;51.256;22.478;2022-09-09T04:34:30;25.40;;;16.70;;
26742;SDS011;14341;51.256;22.478;2022-09-09T04:37:34;22.85;;;16.25;;
26742;SDS011;14341;51.256;22.478;2022-09-09T04:40:37;24.88;;;17.30;;
26742;SDS011;14341;51.256;22.478;2022-09-09T04:43:44;28.48;;;17.25;;
26742;SDS011;14341;51.256;22.478;2022-09-09T04:46:49;23.02;;;16.80;;
26742;SDS011;14341;51.256;22.478;2022-09-09T04:49:54;25.52;;;17.15;;
26742;SDS011;14341;51.256;22.478;2022-09-09T04:52:59;23.95;;;17.08;;
26742;SDS011;14341;51.256;22.478;2022-09-09T04:56:04;25.95;;;16.65;;
26742;SDS011;14341;51.256;22.478;2022-09-09T04:59:13;28.27;;;16.63;;
26742;SDS011;14341;51.256;22.478;2022-09-09T05:02:20;24.92;;;16.88;;
26742;SDS011;14341;51.256;22.478;2022-09-09T05:05:29;26.90;;;16.80;;
26742;SDS011;14341;51.256;22.478;2022-09-09T05:08:33;27.25;;;16.80;;
26742;SDS011;14341;51.256;22.478;2022-09-09T05:11:36;25.48;;;17.15;;
26742;SDS011;14341;51.256;22.478;2022-09-09T05:14:45;26.92;;;16.27;;
26742;SDS011;14341;51.256;22.478;2022-09-09T05:17:48;23.05;;;16.05;;
26742;SDS011;14341;51.256;22.478;2022-09-09T05:20:59;24.33;;;16.50;;
26742;SDS011;14341;51.256;22.478;2022-09-09T05:24:04;22.52;;;15.68;;
26742;SDS011;14341;51.256;22.478;2022-09-09T05:27:08;22.73;;;16.30;;
26742;SDS011;14341;51.256;22.478;2022-09-09T05:30:14;28.42;;;17.05;;
26742;SDS011;14341;51.256;22.478;2022-09-09T05:33:18;26.88;;;17.42;;
26742;SDS011;14341;51.256;22.478;2022-09-09T05:36:23;25.55;;;17.27;;
26742;SDS011;14341;51.256;22.478;2022-09-09T05:39:30;23.83;;;16.73;;
26742;SDS011;14341;51.256;22.478;2022-09-09T05:42:34;24.45;;;16.65;;
26742;SDS011;14341;51.256;22.478;2022-09-09T05:45:38;25.20;;;16.08;;
26742;SDS011;14341;51.256;22.478;2022-09-09T05:48:42;23.25;;;15.75;;
26742;SDS011;14341;51.256;22.478;2022-09-09T05:51:49;21.40;;;15.15;;
26742;SDS011;14341;51.256;22.478;2022-09-09T05:54:55;22.02;;;15.95;;
26742;SDS011;14341;51.256;22.478;2022-09-09T05:57:58;21.05;;;15.10;;
26742;SDS011;14341;51.256;22.478;2022-09-09T06:01:05;20.17;;;14.57;;
26742;SDS011;14341;51.256;22.478;2022-09-09T06:04:10;21.50;;;15.25;;
26742;SDS011;14341;51.256;22.478;2022-09-09T06:07:24;25.58;;;19.83;;
26742;SDS011;14341;51.256;22.478;2022-09-09T06:10:29;22.45;;;15.55;;
26742;SDS011;14341;51.256;22.478;2022-09-09T06:13:32;20.17;;;15.02;;
26742;SDS011;14341;51.256;22.478;2022-09-09T06:16:37;23.25;;;15.27;;
26742;SDS011;14341;51.256;22.478;2022-09-09T06:19:50;20.63;;;15.52;;
26742;SDS011;14341;51.256;22.478;2022-09-09T06:22:55;26.30;;;15.77;;
26742;SDS011;14341;51.256;22.478;2022-09-09T06:26:02;20.10;;;15.32;;
26742;SDS011;14341;51.256;22.478;2022-09-09T06:29:09;21.05;;;15.27;;
26742;SDS011;14341;51.256;22.478;2022-09-09T06:32:14;26.55;;;16.65;;
26742;SDS011;14341;51.256;22.478;2022-09-09T06:35:18;26.95;;;16.20;;
26742;SDS011;14341;51.256;22.478;2022-09-09T06:38:23;32.30;;;24.38;;
26742;SDS011;14341;51.256;22.478;2022-09-09T06:41:29;21.42;;;13.73;;
26742;SDS011;14341;51.256;22.478;2022-09-09T06:44:37;19.30;;;13.93;;
26742;SDS011;14341;51.256;22.478;2022-09-09T06:47:43;18.35;;;13.82;;
26742;SDS011;14341;51.256;22.478;2022-09-09T06:50:47;18.38;;;13.18;;
26742;SDS011;14341;51.256;22.478;2022-09-09T06:53:54;22.20;;;14.18;;
26742;SDS011;14341;51.256;22.478;2022-09-09T06:57:00;22.15;;;13.65;;
26742;SDS011;14341;51.256;22.478;2022-09-09T07:00:25;18.13;;;13.82;;
26742;SDS011;14341;51.256;22.478;2022-09-09T07:03:30;20.95;;;13.82;;
26742;SDS011;14341;51.256;22.478;2022-09-09T07:06:35;19.77;;;14.23;;
26742;SDS011;14341;51.256;22.478;2022-09-09T07:09:44;25.80;;;14.68;;
26742;SDS011;14341;51.256;22.478;2022-09-09T07:12:50;20.65;;;14.63;;
26742;SDS011;14341;51.256;22.478;2022-09-09T07:16:02;22.63;;;15.37;;
26742;SDS011;14341;51.256;22.478;2022-09-09T07:19:07;22.02;;;15.25;;
26742;SDS011;14341;51.256;22.478;2022-09-09T07:22:11;25.83;;;16.58;;
26742;SDS011;14341;51.256;22.478;2022-09-09T07:25:19;25.48;;;15.65;;
26742;SDS011;14341;51.256;22.478;2022-09-09T07:28:23;23.05;;;15.30;;
26742;SDS011;14341;51.256;22.478;2022-09-09T07:31:29;23.10;;;15.43;;
26742;SDS011;14341;51.256;22.478;2022-09-09T07:34:36;22.42;;;15.30;;
26742;SDS011;14341;51.256;22.478;2022-09-09T07:37:40;25.33;;;14.57;;
26742;SDS011;14341;51.256;22.478;2022-09-09T07:40:50;22.92;;;15.55;;
26742;SDS011;14341;51.256;22.478;2022-09-09T07:43:57;24.27;;;17.38;;
26742;SDS011;14341;51.256;22.478;2022-09-09T07:47:10;27.27;;;15.70;;
26742;SDS011;14341;51.256;22.478;2022-09-09T07:50:18;22.92;;;14.80;;
26742;SDS011;14341;51.256;22.478;2022-09-09T07:53:21;25.50;;;15.73;;
26742;SDS011;14341;51.256;22.478;2022-09-09T07:56:27;26.15;;;16.15;;
26742;SDS011;14341;51.256;22.478;2022-09-09T07:59:31;22.50;;;15.68;;
26742;SDS011;14341;51.256;22.478;2022-09-09T08:02:36;25.58;;;16.77;;
26742;SDS011;14341;51.256;22.478;2022-09-09T08:05:39;26.85;;;16.92;;
26742;SDS011;14341;51.256;22.478;2022-09-09T08:08:44;29.17;;;16.63;;
26742;SDS011;14341;51.256;22.478;2022-09-09T08:11:54;26.50;;;17.38;;
26742;SDS011;14341;51.256;22.478;2022-09-09T08:14:59;27.50;;;17.27;;
26742;SDS011;14341;51.256;22.478;2022-09-09T08:18:06;27.85;;;17.65;;
26742;SDS011;14341;51.256;22.478;2022-09-09T08:21:11;31.55;;;18.08;;
26742;SDS011;14341;51.256;22.478;2022-09-09T08:24:17;25.90;;;17.85;;
26742;SDS011;14341;51.256;22.478;2022-09-09T08:27:25;29.08;;;17.98;;
26742;SDS011;14341;51.256;22.478;2022-09-09T08:30:29;24.50;;;16.85;;
26742;SDS011;14341;51.256;22.478;2022-09-09T08:33:34;26.73;;;17.30;;
26742;SDS011;14341;51.256;22.478;2022-09-09T08:36:41;27.27;;;16.80;;
26742;SDS011;14341;51.256;22.478;2022-09-09T08:39:47;29.00;;;17.25;;
26742;SDS011;14341;51.256;22.478;2022-09-09T08:42:56;31.30;;;17.85;;
26742;SDS011;14341;51.256;22.478;2022-09-09T08:46:06;30.15;;;18.60;;
26742;SDS011;14341;51.256;22.478;2022-09-09T08:49:21;32.13;;;19.33;;
26742;SDS011;14341;51.256;22.478;2022-09-09T08:52:45;30.48;;;19.30;;
26742;SDS011;14341;51.256;22.478;2022-09-09T08:55:56;31.17;;;20.42;;
26742;SDS011;14341;51.256;22.478;2022-09-09T08:59:16;33.33;;;21.25;;
26742;SDS011;14341;51.256;22.478;2022-09-09T09:02:23;38.05;;;21.02;;
26742;SDS011;14341;51.256;22.478;2022-09-09T09:05:33;30.45;;;20.50;;
26742;SDS011;14341;51.256;22.478;2022-09-09T09:08:43;30.05;;;20.88;;
26742;SDS011;14341;51.256;22.478;2022-09-09T09:11:55;37.35;;;21.33;;
26742;SDS011;14341;51.256;22.478;2022-09-09T09:15:11;32.97;;;21.30;;
26742;SDS011;14341;51.256;22.478;2022-09-09T09:18:20;33.25;;;20.33;;
26742;SDS011;14341;51.256;22.478;2022-09-09T09:21:28;32.42;;;20.67;;
26742;SDS011;14341;51.256;22.478;2022-09-09T09:24:40;34.17;;;20.50;;
26742;SDS011;14341;51.256;22.478;2022-09-09T09:27:50;40.63;;;21.08;;
26742;SDS011;14341;51.256;22.478;2022-09-09T09:31:03;34.30;;;20.80;;
26742;SDS011;14341;51.256;22.478;2022-09-09T09:34:10;35.50;;;22.08;;
26742;SDS011;14341;51.256;22.478;2022-09-09T09:37:15;32.17;;;20.80;;
26742;SDS011;14341;51.256;22.478;2022-09-09T09:40:22;37.97;;;20.98;;
26742;SDS011;14341;51.256;22.478;2022-09-09T09:43:26;34.20;;;20.05;;
26742;SDS011;14341;51.256;22.478;2022-09-09T09:46:35;33.67;;;21.73;;
26742;SDS011;14341;51.256;22.478;2022-09-09T09:49:51;35.85;;;22.90;;
26742;SDS011;14341;51.256;22.478;2022-09-09T09:52:57;38.40;;;22.65;;
26742;SDS011;14341;51.256;22.478;2022-09-09T09:56:05;36.05;;;22.27;;
26742;SDS011;14341;51.256;22.478;2022-09-09T09:59:19;38.10;;;21.77;;
26742;SDS011;14341;51.256;22.478;2022-09-09T10:02:41;30.00;;;20.50;;
26742;SDS011;14341;51.256;22.478;2022-09-09T10:05:52;32.05;;;20.13;;
26742;SDS011;14341;51.256;22.478;2022-09-09T10:08:56;33.17;;;20.02;;
26742;SDS011;14341;51.256;22.478;2022-09-09T10:12:00;36.08;;;20.92;;
26742;SDS011;14341;51.256;22.478;2022-09-09T10:15:16;30.20;;;19.63;;
26742;SDS011;14341;51.256;22.478;2022-09-09T10:18:38;38.08;;;20.70;;
26742;SDS011;14341;51.256;22.478;2022-09-09T10:21:54;39.95;;;23.65;;
26742;SDS011;14341;51.256;22.478;2022-09-09T10:25:23;37.42;;;22.35;;
26742;SDS011;14341;51.256;22.478;2022-09-09T10:28:37;34.17;;;22.77;;
26742;SDS011;14341;51.256;22.478;2022-09-09T10:32:06;37.08;;;21.67;;
26742;SDS011;14341;51.256;22.478;2022-09-09T10:35:30;37.45;;;22.10;;
26742;SDS011;14341;51.256;22.478;2022-09-09T10:38:39;38.50;;;22.20;;
26742;SDS011;14341;51.256;22.478;2022-09-09T10:41:45;38.83;;;22.02;;
26742;SDS011;14341;51.256;22.478;2022-09-09T10:45:00;34.55;;;22.33;;
26742;SDS011;14341;51.256;22.478;2022-09-09T10:48:20;36.50;;;22.00;;
26742;SDS011;14341;51.256;22.478;2022-09-09T10:51:50;39.28;;;21.83;;
26742;SDS011;14341;51.256;22.478;2022-09-09T10:55:02;34.22;;;22.65;;
26742;SDS011;14341;51.256;22.478;2022-09-09T10:58:15;35.10;;;21.63;;
26742;SDS011;14341;51.256;22.478;2022-09-09T11:01:27;38.70;;;26.00;;
26742;SDS011;14341;51.256;22.478;2022-09-09T11:04:35;45.47;;;24.67;;
26742;SDS011;14341;51.256;22.478;2022-09-09T11:07:47;26.42;;;17.60;;
26742;SDS011;14341;51.256;22.478;2022-09-09T11:10:57;39.47;;;24.38;;
26742;SDS011;14341;51.256;22.478;2022-09-09T11:14:07;35.85;;;24.15;;
26742;SDS011;14341;51.256;22.478;2022-09-09T11:17:18;36.10;;;24.83;;
26742;SDS011;14341;51.256;22.478;2022-09-09T11:20:25;37.65;;;23.50;;
26742;SDS011;14341;51.256;22.478;2022-09-09T11:23:32;47.13;;;32.72;;
26742;SDS011;14341;51.256;22.478;2022-09-09T11:26:44;39.10;;;23.88;;
26742;SDS011;14341;51.256;22.478;2022-09-09T11:30:02;36.53;;;22.67;;
26742;SDS011;14341;51.256;22.478;2022-09-09T11:33:48;34.15;;;21.30;;
26742;SDS011;14341;51.256;22.478;2022-09-09T11:37:08;35.67;;;20.63;;
26742;SDS011;14341;51.256;22.478;2022-09-09T11:43:39;35.95;;;21.45;;
26742;SDS011;14341;51.256;22.478;2022-09-09T11:46:44;35.00;;;21.02;;
26742;SDS011;14341;51.256;22.478;2022-09-09T11:49:52;34.83;;;20.60;;
26742;SDS011;14341;51.256;22.478;2022-09-09T11:53:16;34.00;;;21.05;;
26742;SDS011;14341;51.256;22.478;2022-09-09T11:56:34;32.00;;;21.17;;
26742;SDS011;14341;51.256;22.478;2022-09-09T11:59:49;34.30;;;21.75;;
26742;SDS011;14341;51.256;22.478;2022-09-09T12:02:54;35.33;;;20.92;;
26742;SDS011;14341;51.256;22.478;2022-09-09T12:05:58;33.75;;;21.17;;
26742;SDS011;14341;51.256;22.478;2022-09-09T12:09:06;28.42;;;20.00;;
26742;SDS011;14341;51.256;22.478;2022-09-09T12:12:24;34.03;;;21.33;;
26742;SDS011;14341;51.256;22.478;2022-09-09T12:18:37;33.75;;;20.90;;
26742;SDS011;14341;51.256;22.478;2022-09-09T12:21:45;33.72;;;21.17;;
26742;SDS011;14341;51.256;22.478;2022-09-09T12:24:55;35.50;;;21.65;;
26742;SDS011;14341;51.256;22.478;2022-09-09T12:28:11;34.20;;;21.50;;
26742;SDS011;14341;51.256;22.478;2022-09-09T12:31:21;33.92;;;21.35;;
26742;SDS011;14341;51.256;22.478;2022-09-09T12:34:32;40.53;;;24.60;;
26742;SDS011;14341;51.256;22.478;2022-09-09T12:37:41;37.90;;;22.60;;
26742;SDS011;14341;51.256;22.478;2022-09-09T12:40:53;36.40;;;22.30;;
26742;SDS011;14341;51.256;22.478;2022-09-09T12:44:04;36.58;;;22.92;;
26742;SDS011;14341;51.256;22.478;2022-09-09T12:47:09;36.47;;;24.20;;
26742;SDS011;14341;51.256;22.478;2022-09-09T12:50:16;40.50;;;23.48;;
26742;SDS011;14341;51.256;22.478;2022-09-09T12:53:22;37.70;;;21.88;;
26742;SDS011;14341;51.256;22.478;2022-09-09T12:56:28;34.30;;;22.70;;
26742;SDS011;14341;51.256;22.478;2022-09-09T12:59:39;39.10;;;23.88;;
26742;SDS011;14341;51.256;22.478;2022-09-09T13:02:47;36.30;;;23.27;;
26742;SDS011;14341;51.256;22.478;2022-09-09T13:05:53;36.65;;;24.00;;
26742;SDS011;14341;51.256;22.478;2022-09-09T13:09:02;35.85;;;24.17;;
26742;SDS011;14341;51.256;22.478;2022-09-09T13:12:06;41.78;;;25.50;;
26742;SDS011;14341;51.256;22.478;2022-09-09T13:15:19;38.33;;;25.27;;
26742;SDS011;14341;51.256;22.478;2022-09-09T13:18:25;38.20;;;25.00;;
26742;SDS011;14341;51.256;22.478;2022-09-09T13:21:33;37.17;;;25.13;;
26742;SDS011;14341;51.256;22.478;2022-09-09T13:24:38;39.60;;;25.02;;
26742;SDS011;14341;51.256;22.478;2022-09-09T13:27:51;39.00;;;25.15;;
26742;SDS011;14341;51.256;22.478;2022-09-09T13:30:59;42.17;;;25.92;;
26742;SDS011;14341;51.256;22.478;2022-09-09T13:34:10;104.05;;;76.00;;
26742;SDS011;14341;51.256;22.478;2022-09-09T13:37:17;44.15;;;27.60;;
26742;SDS011;14341;51.256;22.478;2022-09-09T13:40:25;45.03;;;27.63;;
26742;SDS011;14341;51.256;22.478;2022-09-09T13:43:31;38.85;;;24.88;;
26742;SDS011;14341;51.256;22.478;2022-09-09T13:46:39;35.88;;;24.65;;
26742;SDS011;14341;51.256;22.478;2022-09-09T13:49:47;44.42;;;25.83;;
26742;SDS011;14341;51.256;22.478;2022-09-09T13:52:51;39.63;;;24.98;;
26742;SDS011;14341;51.256;22.478;2022-09-09T13:55:56;38.03;;;24.63;;
26742;SDS011;14341;51.256;22.478;2022-09-09T13:59:01;37.53;;;22.30;;
26742;SDS011;14341;51.256;22.478;2022-09-09T14:02:08;35.95;;;23.95;;
26742;SDS011;14341;51.256;22.478;2022-09-09T14:05:12;38.95;;;24.15;;
26742;SDS011;14341;51.256;22.478;2022-09-09T14:08:22;37.60;;;23.33;;
26742;SDS011;14341;51.256;22.478;2022-09-09T14:11:29;37.45;;;24.38;;
26742;SDS011;14341;51.256;22.478;2022-09-09T14:14:33;35.08;;;24.17;;
26742;SDS011;14341;51.256;22.478;2022-09-09T14:17:39;35.80;;;22.95;;
26742;SDS011;14341;51.256;22.478;2022-09-09T14:20:45;37.30;;;23.77;;
26742;SDS011;14341;51.256;22.478;2022-09-09T14:23:49;39.60;;;24.20;;
26742;SDS011;14341;51.256;22.478;2022-09-09T14:26:54;40.28;;;25.33;;
26742;SDS011;14341;51.256;22.478;2022-09-09T14:29:57;39.58;;;25.00;;
26742;SDS011;14341;51.256;22.478;2022-09-09T14:33:04;42.95;;;28.27;;
26742;SDS011;14341;51.256;22.478;2022-09-09T14:36:08;45.65;;;25.45;;
26742;SDS011;14341;51.256;22.478;2022-09-09T14:39:12;41.83;;;25.23;;
26742;SDS011;14341;51.256;22.478;2022-09-09T14:42:16;36.97;;;25.13;;
26742;SDS011;14341;51.256;22.478;2022-09-09T14:45:20;38.80;;;23.52;;
26742;SDS011;14341;51.256;22.478;2022-09-09T14:48:28;36.17;;;24.15;;
26742;SDS011;14341;51.256;22.478;2022-09-09T14:51:33;34.97;;;23.58;;
26742;SDS011;14341;51.256;22.478;2022-09-09T14:54:36;37.72;;;24.55;;
26742;SDS011;14341;51.256;22.478;2022-09-09T14:57:40;35.88;;;25.35;;
26742;SDS011;14341;51.256;22.478;2022-09-09T15:00:44;38.63;;;26.95;;
26742;SDS011;14341;51.256;22.478;2022-09-09T15:03:50;37.95;;;25.85;;
26742;SDS011;14341;51.256;22.478;2022-09-09T15:06:55;35.38;;;25.17;;
26742;SDS011;14341;51.256;22.478;2022-09-09T15:10:00;41.08;;;27.27;;
26742;SDS011;14341;51.256;22.478;2022-09-09T15:13:04;39.10;;;27.33;;
26742;SDS011;14341;51.256;22.478;2022-09-09T15:16:09;36.28;;;24.85;;
26742;SDS011;14341;51.256;22.478;2022-09-09T15:19:16;39.63;;;26.90;;
26742;SDS011;14341;51.256;22.478;2022-09-09T15:22:24;40.92;;;28.02;;
26742;SDS011;14341;51.256;22.478;2022-09-09T15:25:28;40.10;;;27.38;;
26742;SDS011;14341;51.256;22.478;2022-09-09T15:28:33;44.65;;;29.00;;
26742;SDS011;14341;51.256;22.478;2022-09-09T15:31:44;42.63;;;29.67;;
26742;SDS011;14341;51.256;22.478;2022-09-09T15:34:53;61.47;;;44.25;;
26742;SDS011;14341;51.256;22.478;2022-09-09T15:38:24;45.60;;;31.15;;
26742;SDS011;14341;51.256;22.478;2022-09-09T15:41:28;46.05;;;31.75;;
26742;SDS011;14341;51.256;22.478;2022-09-09T15:44:45;42.50;;;30.10;;
26742;SDS011;14341;51.256;22.478;2022-09-09T15:47:50;47.63;;;31.50;;
26742;SDS011;14341;51.256;22.478;2022-09-09T15:51:04;48.58;;;32.65;;
26742;SDS011;14341;51.256;22.478;2022-09-09T15:54:33;47.40;;;35.05;;
26742;SDS011;14341;51.256;22.478;2022-09-09T15:57:42;49.67;;;32.05;;
26742;SDS011;14341;51.256;22.478;2022-09-09T16:00:54;46.60;;;30.17;;
26742;SDS011;14341;51.256;22.478;2022-09-09T16:04:08;42.22;;;30.60;;
26742;SDS011;14341;51.256;22.478;2022-09-09T16:07:15;45.25;;;29.52;;
26742;SDS011;14341;51.256;22.478;2022-09-09T16:10:21;45.38;;;30.58;;
26742;SDS011;14341;51.256;22.478;2022-09-09T16:13:25;106.78;;;69.75;;
26742;SDS011;14341;51.256;22.478;2022-09-09T16:16:29;51.90;;;34.55;;
26742;SDS011;14341;51.256;22.478;2022-09-09T16:19:41;50.53;;;32.83;;
26742;SDS011;14341;51.256;22.478;2022-09-09T16:22:49;48.90;;;31.38;;
26742;SDS011;14341;51.256;22.478;2022-09-09T16:25:56;50.15;;;35.50;;
26742;SDS011;14341;51.256;22.478;2022-09-09T16:29:07;53.28;;;36.75;;
26742;SDS011;14341;51.256;22.478;2022-09-09T16:32:11;52.47;;;37.03;;
26742;SDS011;14341;51.256;22.478;2022-09-09T16:35:16;68.50;;;47.30;;
26742;SDS011;14341;51.256;22.478;2022-09-09T16:38:23;55.95;;;39.67;;
26742;SDS011;14341;51.256;22.478;2022-09-09T16:41:27;76.43;;;41.22;;
26742;SDS011;14341;51.256;22.478;2022-09-09T16:44:32;54.90;;;39.90;;
26742;SDS011;14341;51.256;22.478;2022-09-09T16:47:35;58.13;;;39.80;;
26742;SDS011;14341;51.256;22.478;2022-09-09T16:50:41;59.53;;;39.80;;
26742;SDS011;14341;51.256;22.478;2022-09-09T16:53:47;59.60;;;38.53;;
26742;SDS011;14341;51.256;22.478;2022-09-09T16:56:51;61.97;;;39.10;;
26742;SDS011;14341;51.256;22.478;2022-09-09T16:59:56;61.55;;;39.15;;
26742;SDS011;14341;51.256;22.478;2022-09-09T17:03:04;64.45;;;41.20;;
26742;SDS011;14341;51.256;22.478;2022-09-09T17:06:09;65.53;;;42.72;;
26742;SDS011;14341;51.256;22.478;2022-09-09T17:09:17;71.55;;;44.33;;
26742;SDS011;14341;51.256;22.478;2022-09-09T17:12:22;70.90;;;45.40;;
26742;SDS011;14341;51.256;22.478;2022-09-09T17:15:27;74.28;;;45.45;;
26742;SDS011;14341;51.256;22.478;2022-09-09T17:18:32;78.90;;;46.85;;
26742;SDS011;14341;51.256;22.478;2022-09-09T17:21:37;83.78;;;50.15;;
26742;SDS011;14341;51.256;22.478;2022-09-09T17:25:02;81.22;;;46.88;;
26742;SDS011;14341;51.256;22.478;2022-09-09T17:28:06;76.03;;;47.60;;
26742;SDS011;14341;51.256;22.478;2022-09-09T17:31:15;75.82;;;47.22;;
26742;SDS011;14341;51.256;22.478;2022-09-09T17:34:21;77.40;;;47.33;;
26742;SDS011;14341;51.256;22.478;2022-09-09T17:37:25;65.53;;;44.47;;
26742;SDS011;14341;51.256;22.478;2022-09-09T17:40:31;68.60;;;44.20;;
26742;SDS011;14341;51.256;22.478;2022-09-09T17:43:36;61.67;;;41.88;;
26742;SDS011;14341;51.256;22.478;2022-09-09T17:46:41;60.63;;;41.13;;
26742;SDS011;14341;51.256;22.478;2022-09-09T17:49:47;58.42;;;41.63;;
26742;SDS011;14341;51.256;22.478;2022-09-09T17:52:51;62.65;;;41.22;;
26742;SDS011;14341;51.256;22.478;2022-09-09T17:55:57;59.92;;;39.45;;
26742;SDS011;14341;51.256;22.478;2022-09-09T17:59:06;64.43;;;47.15;;
26742;SDS011;14341;51.256;22.478;2022-09-09T18:02:13;67.55;;;44.42;;
26742;SDS011;14341;51.256;22.478;2022-09-09T18:05:17;67.15;;;41.08;;
26742;SDS011;14341;51.256;22.478;2022-09-09T18:08:22;64.68;;;40.72;;
26742;SDS011;14341;51.256;22.478;2022-09-09T18:11:28;72.72;;;38.95;;
26742;SDS011;14341;51.256;22.478;2022-09-09T18:14:34;64.00;;;39.13;;
26742;SDS011;14341;51.256;22.478;2022-09-09T18:17:37;56.63;;;34.67;;